Sponsor Message:
Civil Aviation Forum
My Starred Topics | Profile | New Topic | Forum Index | Help | Search 
Cancellations In YHZ?  
User currently offlineYhz78 From Canada, joined Apr 2004, 147 posts, RR: 0
Posted (9 years 5 months 2 weeks 6 days 23 hours ago) and read 1678 times:

I just saw ont he YHZ website www.hiaa.com that all AC flights are either running ver delayed or have been outright cancelled. All other flights seem to be operating more or less on sked. Anyone have any knowledge on the reason for AC being all messed up?


Canada Rocks! From the west coast to the best coast!
3 replies: All unread, jump to last
 
User currently offlineYhz78 From Canada, joined Apr 2004, 147 posts, RR: 0
Reply 1, posted (9 years 5 months 2 weeks 6 days 23 hours ago) and read 1653 times:

Never mind I found the reason........

Travel Advisory for Flights to/from Halifax
July 1, 2005 - Runway reconstruction at Halifax International Airport may cause delays and cancellations to flights to and from Halifax, particularly during inclement weather. For further details, please see the Halifax International Airport Authority's information link:

Halifax Airport Authority

Customers with flights to and from Halifax are advised to check on the status of their flight prior to leaving for the airport by consulting the Air Canada website at www.aircanada.ca or calling 1-888-422-7533, or by using a web-enhanced cell phone.

For July 1, due to the runway reconstruction and inclement weather with visibility below limits, Air Canada advises that flights to and from Halifax will be impacted for the rest of the day.

Customers with flights affected by the weather and wishing to make alternative travel arrangements can do so without penalty, space permitting, through Air Canada Reservations at 1-888-247-2262; TTY: 1-800-361-8071



Canada Rocks! From the west coast to the best coast!
User currently offlineTribird1011 From Canada, joined Mar 2005, 211 posts, RR: 0
Reply 2, posted (9 years 5 months 2 weeks 6 days 20 hours ago) and read 1588 times:

I'm sure this didn't help matters much...


METAR CYHZ 012300Z 16011KT 1/8SM FG VV001 15/15 A2993 RMK FG8 SLP135=

METAR CYHZ 020000Z 15008KT 1/8SM FG VV001 15/15 A2992 RMK FG8 SLP132=

METAR CYHZ 020100Z 16008KT 1/8SM FG VV001 16/16 A2991 RMK FG8
SLP130

As well Westjet also cancelled its' two afternoon flights to Halifax
WS 798 YYZ-YHZ-YYT went directly to YYT - no YHZ and WS 682 YYZ-YHZ was cancelled outright.

I'm sure it was more weather related, than runway construction - although that would also impact operations!!


User currently offlineCO2BGR From United States of America, joined Oct 2003, 558 posts, RR: 4
Reply 3, posted (9 years 5 months 2 weeks 6 days 19 hours ago) and read 1547 times:

The construction is for the ILS, so the ILS is out and the planes and pissed off people come to BGR, and I get to deal with them. My day has been wonderful how bout yours?


There are too many self indulgent weiners in this town with too much bloody money" Randal Raines- Gone in 60 Seconds
Top Of Page
Forum Index

This topic is archived and can not be replied to any more.

Printer friendly format

Similar topics:More similar topics...
WS Wingtip Strike In YHZ posted Wed Dec 28 2005 00:02:34 by Yhz78
BA 777 In YHZ? Emerg? posted Fri Oct 21 2005 05:35:51 by JasYHZ
Delays And Cancellations In Bolivia posted Fri Jun 10 2005 02:47:31 by Venezuela747
Polar Air Cargo In Yhz posted Sat Apr 10 2004 17:10:13 by Firefly_cyhz
JAL 747-400 In Yhz? posted Fri Jun 14 2002 20:34:28 by Vref
MOre Flight Cancellations In NE U.S. & SE Canada posted Mon Dec 11 2000 20:56:32 by Red Panda
AC 767 At YHZ In 1987. posted Wed Aug 2 2006 16:26:01 by Bmacleod
Cancellations Of Flights In Brazil posted Thu Jun 22 2006 20:09:35 by AwysBSB
UA To Operate YHZ-IAD In June posted Thu Mar 16 2006 21:58:25 by Yhz78
Cancellations Due To Security In USA posted Mon Oct 15 2001 00:34:43 by Fly_emirates